Salado, Arizona
Current Conditions -  °F | °C
As of 9:54 AM on Friday 24 Oct 2014 (Local Time) from KSJN Reporting Station
Clear Clear  
Wind Chill: 63°   Ceiling: Unl
Heat Index: 63°   Visibility: 10mi
Dew Point: 38°   Wind: 0mph
Humidity: 40%   Direction: NA
Pressure: 30.36"   Gusts: NA
Location:  34.4981°N, 109.241°W
Report Text: KSJN 241654Z AUTO 00000KT 10SM CLR 17/03 A3036 RMK AO2 SLP217 T01720033
Loading
Personal Weather Stations






























Interactive Weather Map
Tropical Storm Tracking
New forecast layout! Learn more

10-Day Weather Forecast

Advertisements
Track Severe Weather on mobile